Terminal Aerodrome Forecast
Issued by NWS

Home | Current Version | Previous Version | Text Only | Print | Product List | Glossary On
Versions: 1 2 3 4 5 6 7 8 9 10 11 12 13 14 15 16
720
FTUS42 TJSJ 241738
TAFJSJ
TAF
TJSJ 241738Z 2418/2518 09010KT 5SM -SHRA VCTS SCT015CB BKN040
      BKN050
     FM242130 VRB12KT P6SM VCTS SCT020CB BKN040 OVC060
     FM251330 09012KT P6SM VCSH SCT025 SCT050=

USA.gov is the U.S. government's official web portal to all federal, state and local government web resources and services.